createdAt,value
2022-10-11T00:00:16.063Z,19.30
2022-10-11T00:03:04.166Z,15.60
2022-10-11T00:05:32.669Z,15.30
2022-10-11T00:08:00.054Z,18.70
2022-10-11T00:10:27.311Z,14.10
2022-10-11T00:12:55.055Z,17.00
2022-10-11T00:15:22.887Z,19.40
2022-10-11T00:17:50.209Z,12.10
2022-10-11T00:20:18.152Z,14.00
2022-10-11T00:22:45.635Z,14.30
2022-10-11T00:25:12.993Z,13.50
2022-10-11T00:27:40.479Z,14.60
2022-10-11T00:30:09.160Z,17.30
2022-10-11T00:32:38.301Z,15.70
2022-10-11T00:35:07.239Z,15.90
2022-10-11T00:37:35.910Z,17.90
2022-10-11T00:40:07.107Z,15.00
2022-10-11T00:42:34.584Z,15.80
2022-10-11T00:45:40.085Z,16.20
2022-10-11T00:48:17.668Z,18.70
2022-10-11T00:50:44.806Z,17.40
2022-10-11T00:53:12.600Z,14.70
2022-10-11T00:55:47.013Z,17.30
2022-10-11T00:58:14.966Z,13.70
2022-10-11T01:00:42.309Z,15.40
2022-10-11T01:03:10.150Z,14.30
2022-10-11T01:05:39.494Z,14.70
2022-10-11T01:08:08.308Z,17.00
2022-10-11T01:10:35.817Z,22.40
2022-10-11T01:13:35.948Z,18.30
2022-10-11T01:16:24.396Z,16.60
2022-10-11T01:19:07.025Z,16.90
2022-10-11T01:21:49.026Z,19.40
2022-10-11T01:24:28.433Z,20.00
2022-10-11T01:27:25.132Z,15.00
2022-10-11T01:30:03.393Z,15.10
2022-10-11T01:32:43.929Z,16.90
2022-10-11T01:35:28.525Z,17.00
2022-10-11T01:38:06.016Z,16.20
2022-10-11T01:40:39.224Z,17.20
2022-10-11T01:43:06.533Z,19.10
2022-10-11T01:45:35.146Z,14.40
2022-10-11T01:48:13.418Z,19.20
2022-10-11T01:50:47.509Z,21.40
2022-10-11T01:53:47.861Z,21.40
2022-10-11T01:56:15.545Z,15.60
2022-10-11T01:58:51.916Z,13.20
2022-10-11T02:01:31.558Z,14.40
2022-10-11T02:04:10.817Z,14.50
2022-10-11T02:07:05.425Z,11.80
2022-10-11T02:09:46.286Z,14.40
2022-10-11T02:12:20.556Z,14.50
2022-10-11T02:14:51.033Z,12.50
2022-10-11T02:19:52.148Z,11.50
2022-10-11T02:22:24.323Z,9.60
2022-10-11T02:24:55.469Z,12.50
2022-10-11T02:27:27.189Z,13.80
2022-10-11T02:29:58.374Z,15.60
2022-10-11T02:32:27.350Z,11.80
2022-10-11T02:34:57.735Z,9.50
2022-10-11T02:37:32.159Z,15.50
2022-10-11T02:40:27.794Z,17.10
2022-10-11T02:43:01.280Z,15.10
2022-10-11T02:45:38.113Z,17.40
2022-10-11T02:48:08.356Z,18.00
2022-10-11T02:50:36.822Z,11.20
2022-10-11T02:53:04.504Z,12.20
2022-10-11T02:55:32.280Z,13.30
2022-10-11T02:58:00.111Z,17.70
2022-10-11T03:00:27.900Z,13.10
2022-10-11T03:02:55.690Z,12.70
2022-10-11T03:05:23.084Z,14.50
2022-10-11T03:07:50.102Z,17.50
2022-10-11T03:10:18.778Z,16.00
2022-10-11T03:12:46.196Z,16.00
2022-10-11T03:15:13.318Z,9.50
2022-10-11T03:17:41.144Z,13.30
2022-10-11T03:20:09.061Z,20.70
2022-10-11T03:22:36.247Z,16.70
2022-10-11T03:25:04.777Z,11.70
2022-10-11T03:27:33.409Z,11.50
2022-10-11T03:30:00.859Z,13.50
2022-10-11T03:32:28.641Z,13.40
2022-10-11T03:34:56.977Z,19.80
2022-10-11T03:37:24.997Z,20.10
2022-10-11T03:39:52.325Z,15.20
2022-10-11T03:42:20.293Z,12.20
2022-10-11T03:44:49.180Z,15.40
2022-10-11T03:47:17.101Z,17.50
2022-10-11T03:49:44.404Z,12.80
2022-10-11T03:52:11.558Z,15.80
2022-10-11T03:54:39.079Z,11.50
2022-10-11T03:57:07.050Z,11.80
2022-10-11T03:59:34.080Z,11.60
2022-10-11T04:02:01.447Z,16.00
2022-10-11T04:04:29.239Z,13.60
2022-10-11T04:06:56.330Z,15.80
2022-10-11T04:09:23.549Z,14.10
2022-10-11T04:11:51.152Z,13.10
2022-10-11T04:14:18.589Z,12.80
2022-10-11T04:16:46.076Z,10.30
2022-10-11T04:19:13.809Z,11.70
2022-10-11T04:21:41.277Z,10.90
2022-10-11T04:24:11.125Z,17.50
2022-10-11T04:29:05.766Z,12.20
2022-10-11T04:31:33.225Z,10.90
2022-10-11T04:34:00.765Z,9.40
2022-10-11T04:36:28.042Z,12.40
2022-10-11T04:38:56.182Z,15.10
2022-10-11T04:41:23.905Z,11.30
2022-10-11T04:43:51.056Z,13.80
2022-10-11T04:46:18.380Z,13.80
2022-10-11T04:48:45.704Z,15.30
2022-10-11T04:51:12.799Z,15.40
2022-10-11T04:53:40.206Z,16.50
2022-10-11T04:56:10.901Z,13.90
2022-10-11T04:58:42.821Z,21.70
2022-10-11T05:01:11.332Z,25.20
2022-10-11T05:03:38.373Z,28.30
2022-10-11T05:06:06.454Z,24.40
2022-10-11T05:08:34.009Z,21.80
2022-10-11T05:11:03.989Z,17.90
2022-10-11T05:13:32.736Z,15.00
2022-10-11T05:16:01.055Z,12.90
2022-10-11T05:18:29.220Z,19.40
2022-10-11T05:21:06.108Z,27.60
2022-10-11T05:23:35.530Z,19.30
2022-10-11T05:26:03.563Z,17.30
2022-10-11T05:28:31.843Z,15.80
2022-10-11T05:30:59.598Z,26.10
2022-10-11T05:33:27.386Z,20.70
2022-10-11T05:35:54.733Z,20.60
2022-10-11T05:38:22.561Z,22.00
2022-10-11T05:40:50.049Z,16.30
2022-10-11T05:43:17.728Z,13.80
2022-10-11T05:45:46.130Z,12.40
2022-10-11T05:48:13.499Z,17.30
2022-10-11T05:50:41.226Z,15.30
2022-10-11T05:53:09.018Z,11.60
2022-10-11T05:55:41.654Z,9.70
2022-10-11T05:58:14.669Z,14.50
2022-10-11T06:00:41.993Z,14.10
2022-10-11T06:03:12.357Z,20.20
2022-10-11T06:05:40.462Z,16.60
2022-10-11T06:08:09.540Z,14.30
2022-10-11T06:10:38.371Z,11.10
2022-10-11T06:13:07.265Z,18.50
2022-10-11T06:15:38.355Z,13.70
2022-10-11T06:18:05.568Z,16.30
2022-10-11T06:20:33.057Z,18.30
2022-10-11T06:23:00.761Z,10.40
2022-10-11T06:25:27.916Z,11.70
2022-10-11T06:27:55.842Z,11.90
2022-10-11T06:30:23.899Z,10.70
2022-10-11T06:32:51.393Z,10.20
2022-10-11T06:35:18.532Z,8.70
2022-10-11T06:37:45.733Z,15.80
2022-10-11T06:40:13.143Z,14.60
2022-10-11T06:42:40.804Z,17.80
2022-10-11T06:45:08.520Z,11.50
2022-10-11T06:47:35.920Z,16.70
2022-10-11T06:50:03.888Z,11.00
2022-10-11T06:52:31.255Z,12.60
2022-10-11T06:54:58.497Z,10.40
2022-10-11T06:57:27.361Z,8.40
2022-10-11T06:59:54.784Z,13.40
2022-10-11T07:02:22.276Z,11.40
2022-10-11T07:04:49.760Z,6.50
2022-10-11T07:07:17.383Z,7.60
2022-10-11T07:09:44.496Z,10.40
2022-10-11T07:12:12.345Z,13.20
2022-10-11T07:14:39.877Z,11.20
2022-10-11T07:17:07.392Z,9.30
2022-10-11T07:19:35.378Z,10.20
2022-10-11T07:22:02.651Z,11.50
2022-10-11T07:24:29.816Z,8.30
2022-10-11T07:26:57.752Z,7.40
2022-10-11T07:29:25.163Z,7.50
2022-10-11T07:31:52.195Z,8.40
2022-10-11T07:34:20.698Z,8.60
2022-10-11T07:36:48.473Z,12.40
2022-10-11T07:39:15.593Z,9.20
2022-10-11T07:41:45.870Z,8.30
2022-10-11T07:44:14.320Z,8.60
2022-10-11T07:46:41.515Z,10.00
2022-10-11T07:49:22.573Z,10.50
2022-10-11T07:52:06.260Z,11.30
2022-10-11T07:54:33.585Z,6.60
2022-10-11T07:57:01.268Z,12.20
2022-10-11T07:59:28.729Z,11.10
2022-10-11T08:01:56.236Z,10.70
2022-10-11T08:04:23.606Z,10.00
2022-10-11T08:06:53.317Z,11.60
2022-10-11T08:11:48.230Z,10.30
2022-10-11T08:14:15.345Z,6.30
2022-10-11T08:16:42.596Z,16.10
2022-10-11T08:19:10.765Z,9.50
2022-10-11T08:21:38.250Z,9.10
2022-10-11T08:24:06.724Z,13.40
2022-10-11T08:26:34.793Z,9.90
2022-10-11T08:29:03.102Z,11.20
2022-10-11T08:31:31.936Z,10.70
2022-10-11T08:33:59.512Z,9.50
2022-10-11T08:36:26.886Z,14.50
2022-10-11T08:38:54.108Z,11.10
2022-10-11T08:41:55.379Z,9.80
2022-10-11T08:45:05.888Z,8.60
2022-10-11T08:47:43.678Z,8.80
2022-10-11T08:50:19.572Z,6.20
2022-10-11T08:52:56.357Z,6.70
2022-10-11T08:55:43.609Z,7.40
2022-10-11T08:58:16.564Z,8.70
2022-10-11T09:00:47.926Z,8.00
2022-10-11T09:03:37.621Z,12.00
2022-10-11T09:06:24.127Z,9.10
2022-10-11T09:09:30.105Z,11.10
2022-10-11T09:12:03.265Z,13.20
2022-10-11T09:14:43.421Z,9.30
2022-10-11T09:17:32.176Z,6.80
2022-10-11T09:20:26.045Z,8.80
2022-10-11T09:23:03.771Z,18.80
2022-10-11T09:25:44.203Z,15.30
2022-10-11T09:30:58.926Z,15.40
2022-10-11T09:33:34.078Z,13.60
2022-10-11T09:36:11.741Z,9.90
2022-10-11T09:38:46.100Z,8.60
2022-10-11T09:41:16.709Z,9.00
2022-10-11T09:43:52.245Z,9.70
2022-10-11T09:46:30.470Z,12.30
2022-10-11T09:48:59.885Z,14.00
2022-10-11T09:51:27.935Z,13.50
2022-10-11T09:54:00.660Z,10.00
2022-10-11T09:56:30.702Z,11.10
2022-10-11T09:59:20.966Z,13.30
2022-10-11T10:01:50.206Z,6.90
2022-10-11T10:04:17.764Z,11.60
2022-10-11T10:06:44.986Z,8.50
2022-10-11T10:09:25.701Z,11.30
2022-10-11T10:11:55.644Z,6.70
2022-10-11T10:14:30.668Z,7.50
2022-10-11T10:17:06.466Z,11.20
2022-10-11T10:19:51.457Z,11.00
2022-10-11T10:22:27.431Z,9.70
2022-10-11T10:24:57.108Z,13.20
2022-10-11T10:27:27.242Z,7.90
2022-10-11T10:30:09.801Z,13.00
2022-10-11T10:32:53.016Z,14.20
2022-10-11T10:35:45.456Z,10.30
2022-10-11T10:38:28.050Z,13.00
2022-10-11T10:41:04.531Z,32.70
2022-10-11T10:43:37.431Z,10.10
2022-10-11T10:46:36.418Z,12.50
2022-10-11T10:49:52.544Z,11.20
2022-10-11T10:52:44.944Z,7.10
2022-10-11T10:55:42.391Z,15.10
2022-10-11T10:58:42.435Z,10.40
2022-10-11T11:01:23.605Z,14.40
2022-10-11T11:04:28.981Z,14.00
2022-10-11T11:07:13.965Z,10.70
2022-10-11T11:09:50.355Z,7.00
2022-10-11T11:12:30.859Z,13.80
2022-10-11T11:15:02.262Z,12.00
2022-10-11T11:17:35.420Z,10.00
2022-10-11T11:20:18.120Z,12.30
2022-10-11T11:22:59.429Z,13.60
2022-10-11T11:25:51.343Z,17.10
2022-10-11T11:28:30.492Z,12.60
2022-10-11T11:31:49.005Z,20.70
2022-10-11T11:34:24.213Z,11.30
2022-10-11T11:37:00.054Z,11.20
2022-10-11T11:39:43.058Z,12.60
2022-10-11T11:42:48.205Z,12.10
2022-10-11T11:45:23.557Z,12.30
2022-10-11T11:48:05.285Z,15.20
2022-10-11T11:50:44.683Z,8.90
2022-10-11T11:53:16.194Z,11.30
2022-10-11T11:55:52.493Z,6.90
2022-10-11T11:58:46.115Z,14.10
2022-10-11T12:01:39.315Z,9.50
2022-10-11T12:04:20.734Z,15.00
2022-10-11T12:07:15.782Z,13.00
2022-10-11T12:09:50.287Z,12.40
2022-10-11T12:12:36.120Z,14.60
2022-10-11T12:15:11.829Z,10.50
2022-10-11T12:18:16.200Z,10.10
2022-10-11T12:20:44.196Z,9.80
2022-10-11T12:23:30.670Z,9.60
2022-10-11T12:26:28.873Z,11.70
2022-10-11T12:29:05.609Z,9.70
2022-10-11T12:31:35.760Z,16.40
2022-10-11T12:36:47.572Z,12.80
2022-10-11T12:39:17.960Z,16.00
2022-10-11T12:41:53.590Z,10.10
2022-10-11T12:44:26.320Z,14.00
2022-10-11T12:46:54.338Z,10.40
2022-10-11T12:49:28.048Z,9.30
2022-10-11T12:52:20.049Z,6.00
2022-10-11T12:54:59.877Z,12.10
2022-10-11T12:57:46.203Z,16.20
2022-10-11T13:00:28.609Z,24.50
2022-10-11T13:03:02.897Z,13.10
2022-10-11T13:05:44.994Z,14.20
2022-10-11T13:08:25.904Z,14.70
2022-10-11T13:10:55.345Z,17.80
2022-10-11T13:13:41.330Z,13.70
2022-10-11T13:16:16.796Z,18.60
2022-10-11T13:18:47.464Z,11.50
2022-10-11T13:21:25.444Z,16.70
2022-10-11T13:24:00.336Z,13.40
2022-10-11T13:26:29.841Z,14.20
2022-10-11T13:28:59.679Z,10.70
2022-10-11T13:31:27.524Z,15.30
2022-10-11T13:33:58.737Z,13.10
2022-10-11T13:36:27.393Z,17.00
2022-10-11T13:38:58.584Z,7.20
2022-10-11T13:41:28.781Z,8.70
2022-10-11T13:43:57.917Z,10.80
2022-10-11T13:46:27.991Z,9.20
2022-10-11T13:49:04.136Z,16.00
2022-10-11T13:51:37.199Z,9.70
2022-10-11T13:54:06.165Z,11.00
2022-10-11T13:56:45.992Z,13.30
2022-10-11T13:59:23.088Z,11.30
2022-10-11T14:01:57.414Z,8.50
2022-10-11T14:04:29.524Z,9.80
2022-10-11T14:07:02.006Z,7.70
2022-10-11T14:09:36.481Z,10.30
2022-10-11T14:12:27.902Z,17.00
2022-10-11T14:14:55.357Z,9.90
2022-10-11T14:17:43.660Z,14.40
2022-10-11T14:20:33.403Z,12.20
2022-10-11T14:23:00.965Z,8.50
2022-10-11T14:25:28.727Z,12.60
2022-10-11T14:27:56.316Z,12.90
2022-10-11T14:30:27.326Z,8.90
2022-10-11T14:32:57.540Z,7.70
2022-10-11T14:35:32.129Z,8.80
2022-10-11T14:38:00.304Z,15.20
2022-10-11T14:40:30.084Z,9.80
2022-10-11T14:42:57.951Z,10.00
2022-10-11T14:45:27.137Z,14.80
2022-10-11T14:47:55.330Z,16.70
2022-10-11T14:50:36.579Z,16.10
2022-10-11T14:53:05.513Z,10.80
2022-10-11T14:55:35.275Z,16.30
2022-10-11T14:58:03.001Z,27.50
2022-10-11T15:00:31.321Z,11.10
2022-10-11T15:02:59.227Z,12.30
2022-10-11T15:05:33.506Z,14.40
2022-10-11T15:08:05.768Z,12.10
2022-10-11T15:10:40.568Z,16.20
2022-10-11T15:13:08.783Z,14.70
2022-10-11T15:15:40.560Z,16.50
2022-10-11T15:18:12.353Z,12.50
2022-10-11T15:20:43.127Z,18.10
2022-10-11T15:23:10.792Z,12.60
2022-10-11T15:25:41.425Z,15.40
2022-10-11T15:28:19.757Z,15.30
2022-10-11T15:30:47.103Z,20.90
2022-10-11T15:33:14.333Z,27.00
2022-10-11T15:35:41.737Z,28.70
2022-10-11T15:38:17.446Z,24.20
2022-10-11T15:40:46.875Z,30.00
2022-10-11T15:43:15.498Z,18.80
2022-10-11T15:45:43.543Z,21.70
2022-10-11T15:48:15.552Z,12.70
2022-10-11T15:50:42.700Z,17.00
2022-10-11T15:53:18.901Z,18.90
2022-10-11T15:55:51.410Z,24.20
2022-10-11T15:58:21.971Z,15.00
2022-10-11T16:00:55.507Z,12.70
2022-10-11T16:03:26.026Z,15.70
2022-10-11T16:05:54.343Z,14.80
2022-10-11T16:08:22.104Z,14.50
2022-10-11T16:10:50.473Z,23.90
2022-10-11T16:13:17.944Z,70.90
2022-10-11T16:15:46.036Z,46.30
2022-10-11T16:18:15.690Z,50.70
2022-10-11T16:20:46.842Z,28.00
2022-10-11T16:23:14.911Z,34.60
2022-10-11T16:25:43.090Z,28.10
2022-10-11T16:28:10.648Z,23.80
2022-10-11T16:30:45.507Z,17.60
2022-10-11T16:33:13.457Z,17.10
2022-10-11T16:35:41.801Z,19.80
2022-10-11T16:38:09.876Z,26.80
2022-10-11T16:40:38.939Z,18.70
2022-10-11T16:43:07.975Z,25.20
2022-10-11T16:45:36.111Z,19.80
2022-10-11T16:48:04.345Z,16.60
2022-10-11T16:50:34.482Z,31.80
2022-10-11T16:53:06.069Z,40.30
2022-10-11T16:55:33.120Z,32.20
2022-10-11T16:58:00.150Z,32.80
2022-10-11T17:00:27.912Z,33.80
2022-10-11T17:03:07.165Z,24.60
2022-10-11T17:06:10.630Z,28.50
2022-10-11T17:09:00.797Z,97.00
2022-10-11T17:11:56.602Z,57.20
2022-10-11T17:14:51.847Z,49.40
2022-10-11T17:17:52.290Z,31.10
2022-10-11T17:20:40.937Z,23.50
2022-10-11T17:23:32.769Z,24.10
2022-10-11T17:26:31.192Z,25.80
2022-10-11T17:29:21.635Z,30.00
2022-10-11T17:32:14.106Z,28.40
2022-10-11T17:35:15.855Z,26.00
2022-10-11T17:37:53.215Z,22.40
2022-10-11T17:40:21.103Z,27.20
2022-10-11T17:42:48.254Z,27.50
2022-10-11T17:45:15.711Z,36.00
2022-10-11T17:47:43.792Z,36.70
2022-10-11T17:50:11.124Z,30.50
2022-10-11T17:52:38.239Z,28.70
2022-10-11T17:55:06.393Z,32.60
2022-10-11T17:57:33.452Z,35.90
2022-10-11T18:00:03.511Z,23.00
2022-10-11T18:02:34.704Z,27.20
2022-10-11T18:05:02.926Z,30.40
2022-10-11T18:07:30.034Z,39.00
2022-10-11T18:09:57.854Z,42.80
2022-10-11T18:12:25.691Z,37.10
2022-10-11T18:14:52.792Z,32.20
2022-10-11T18:17:20.415Z,86.10
2022-10-11T18:19:47.810Z,80.10
2022-10-11T18:22:14.829Z,112.10
2022-10-11T18:24:42.595Z,133.20
2022-10-11T18:27:10.095Z,164.80
2022-10-11T18:29:37.178Z,185.00
2022-10-11T18:32:05.104Z,187.40
2022-10-11T18:34:33.072Z,181.10
2022-10-11T18:37:00.452Z,201.80
2022-10-11T18:39:28.186Z,185.10
2022-10-11T18:41:55.302Z,125.60
2022-10-11T18:44:22.672Z,111.20
2022-10-11T18:46:51.088Z,120.30
2022-10-11T18:49:18.062Z,117.30
2022-10-11T18:51:46.105Z,77.40
2022-10-11T18:54:18.427Z,52.90
2022-10-11T18:56:48.731Z,51.40
2022-10-11T18:59:16.366Z,49.00
2022-10-11T19:01:44.352Z,49.40
2022-10-11T19:04:13.260Z,50.20
2022-10-11T19:06:44.189Z,55.20
2022-10-11T19:09:14.555Z,51.90
2022-10-11T19:11:41.806Z,48.10
2022-10-11T19:14:15.260Z,52.80
2022-10-11T19:16:45.919Z,43.50
2022-10-11T19:21:40.783Z,44.30
2022-10-11T19:24:08.799Z,41.10
2022-10-11T19:26:40.537Z,42.70
2022-10-11T19:29:09.966Z,43.30
2022-10-11T19:31:44.801Z,44.00
2022-10-11T19:34:13.224Z,38.20
2022-10-11T19:36:42.427Z,42.30
2022-10-11T19:39:15.114Z,40.50
2022-10-11T19:41:43.373Z,35.60
2022-10-11T19:44:12.049Z,32.90
2022-10-11T19:46:55.141Z,33.10
2022-10-11T19:49:24.452Z,29.70
2022-10-11T19:51:55.222Z,28.70
2022-10-11T19:54:23.300Z,24.30
2022-10-11T19:56:51.361Z,24.40
2022-10-11T19:59:19.561Z,22.30
2022-10-11T20:01:51.984Z,29.10
2022-10-11T20:07:08.541Z,47.10
2022-10-11T20:09:36.732Z,40.90
2022-10-11T20:12:04.187Z,44.80
2022-10-11T20:14:31.289Z,54.40
2022-10-11T20:16:59.120Z,47.00
2022-10-11T20:19:30.555Z,46.70
2022-10-11T20:22:00.257Z,52.20
2022-10-11T20:24:31.908Z,49.10
2022-10-11T20:26:59.015Z,40.70
2022-10-11T20:29:27.336Z,37.70
2022-10-11T20:31:55.887Z,44.80
2022-10-11T20:34:23.108Z,39.50
2022-10-11T20:36:50.668Z,43.30
2022-10-11T20:39:18.401Z,39.40
2022-10-11T20:41:46.264Z,43.60
2022-10-11T20:44:15.918Z,45.10
2022-10-11T20:46:43.492Z,43.20
2022-10-11T20:49:11.495Z,37.90
2022-10-11T20:51:41.419Z,38.90
2022-10-11T20:56:36.250Z,35.30
2022-10-11T20:59:04.210Z,30.20
2022-10-11T21:01:38.197Z,33.00
2022-10-11T21:04:07.465Z,29.60
2022-10-11T21:06:34.633Z,24.00
2022-10-11T21:09:01.999Z,27.60
2022-10-11T21:11:31.914Z,25.50
2022-10-11T21:14:01.256Z,26.70
2022-10-11T21:16:28.486Z,23.90
2022-10-11T21:18:57.027Z,27.30
2022-10-11T21:21:25.756Z,23.00
2022-10-11T21:23:54.186Z,23.70
2022-10-11T21:26:21.857Z,24.40
2022-10-11T21:28:49.363Z,27.00
2022-10-11T21:31:18.655Z,25.20
2022-10-11T21:33:46.031Z,16.00
2022-10-11T21:36:17.817Z,24.40
2022-10-11T21:38:45.673Z,27.10
2022-10-11T21:41:17.524Z,24.50
2022-10-11T21:43:45.989Z,22.00
2022-10-11T21:46:22.487Z,23.80
2022-10-11T21:48:50.216Z,21.30
2022-10-11T21:51:26.504Z,24.00
2022-10-11T21:53:55.832Z,25.80
2022-10-11T21:56:23.538Z,21.20
2022-10-11T21:58:50.927Z,25.20
2022-10-11T22:01:19.823Z,23.30
2022-10-11T22:03:47.982Z,30.90
2022-10-11T22:06:16.219Z,26.70
2022-10-11T22:08:43.877Z,25.00
2022-10-11T22:11:11.597Z,23.40
2022-10-11T22:13:38.954Z,26.60
2022-10-11T22:16:09.136Z,23.90
2022-10-11T22:18:36.523Z,25.90
2022-10-11T22:21:14.434Z,22.00
2022-10-11T22:23:44.157Z,19.20
2022-10-11T22:26:14.582Z,20.20
2022-10-11T22:28:42.067Z,23.20
2022-10-11T22:31:10.170Z,19.70
2022-10-11T22:33:38.002Z,22.80
2022-10-11T22:36:11.810Z,17.70
2022-10-11T22:38:40.848Z,15.80
2022-10-11T22:41:09.222Z,20.70
2022-10-11T22:43:36.871Z,18.80
2022-10-11T22:46:05.627Z,21.50
2022-10-11T22:48:33.048Z,21.10
2022-10-11T22:51:01.013Z,20.70
2022-10-11T22:53:28.867Z,24.50
2022-10-11T22:55:56.131Z,19.10
2022-10-11T22:58:23.513Z,21.60
2022-10-11T23:00:50.998Z,15.70
2022-10-11T23:03:19.123Z,21.00
2022-10-11T23:05:57.467Z,20.00
2022-10-11T23:08:25.579Z,18.30
2022-10-11T23:10:53.298Z,22.20
2022-10-11T23:13:21.155Z,18.40
2022-10-11T23:15:49.064Z,19.70
2022-10-11T23:18:16.742Z,23.20
2022-10-11T23:20:44.457Z,17.80
2022-10-11T23:23:12.046Z,16.90
2022-10-11T23:25:39.213Z,21.60
2022-10-11T23:28:06.509Z,20.10
2022-10-11T23:30:34.378Z,17.70
2022-10-11T23:33:01.594Z,18.60
2022-10-11T23:35:28.724Z,16.80
2022-10-11T23:37:56.400Z,17.10
2022-10-11T23:40:23.412Z,16.90
2022-10-11T23:42:50.850Z,25.60
2022-10-11T23:45:18.429Z,17.40
2022-10-11T23:47:45.446Z,16.50
2022-10-11T23:50:12.848Z,22.20
2022-10-11T23:52:40.290Z,21.40
2022-10-11T23:55:07.920Z,16.40
2022-10-11T23:57:35.469Z,22.10
